Latest Coastal Weather Observations for Middle Percy Island

IDQ60701

Issued at 12:12 pm EST Monday 20 November 2017 (issued every 10 minutes, with the page automatically refreshed every 10 minutes)

About coastal observations | Map of coastal stations | Coastal observations for QLD | Marine services | Other Formats
Station Details ID: 200001 Name: MIDDLE PERCY ISLAND Lat: -21.66 Lon: 150.27 Height: 208.7 m
Data from the previous 72 hours. | See also: Recent months at Middle Percy Island
Date/Time
EST
Temp
°C
Wind Pressure Rain since
9am
mm
Weather Cloud Vis
km
Sea
Height
m
Swell
Dir  Spd
kts
Gust
kts
hPa Trend Height
m
Period
s
Dir
20/12:00pm 25.1 ESE 15 24 1015.4 - 0.0 - - - - - - -
20/11:30am 24.6 ESE 14 21 1015.6 - 0.0 - - - - - - -
20/11:00am 22.8 SE 15 23 1015.7 - 0.0 - - - - - - -
20/10:30am 24.6 SE 17 25 1015.6 - 0.0 - - - - - - -
20/10:00am 24.4 SE 14 21 1015.6 - 0.0 - - - - - - -
20/09:30am 23.2 ESE 14 21 1015.6 - 0.0 - - - - - - -
20/09:00am 22.4 ESE 17 25 1015.5 - 0.4 - - - - - - -
20/08:30am 24.1 ESE 16 21 1015.3 - 0.4 - - - - - - -
20/08:00am 23.5 SE 13 18 1015.4 - 0.4 - - - - - - -
20/07:30am 22.9 ESE 13 19 1015.3 - 0.4 - - - - - - -
20/07:00am 22.7 ESE 11 16 1014.6 - 0.4 - - - - - - -
20/06:30am 22.4 SE 13 16 1014.3 - 0.4 - - - - - - -
20/06:00am 22.6 SE 11 17 1014.2 - 0.4 - - - - - - -
20/05:30am 21.8 ESE 5 11 1013.6 - 0.4 - - - - - - -
20/05:00am 21.6 ESE 6 13 1013.4 - 0.4 - - - - - - -
20/04:30am 21.6 ESE 9 15 1013.1 - 0.4 - - - - - - -
20/04:00am 21.9 ESE 8 13 1012.9 - 0.4 - - - - - - -
20/03:30am 21.9 ESE 8 17 1012.8 - 0.4 - - - - - - -
20/03:00am 22.0 ESE 8 13 1013.0 - 0.4 - - - - - - -
20/02:30am 21.9 ESE 8 13 1012.6 - 0.4 - - - - - - -
20/02:00am 21.8 ESE 8 16 1012.3 - 0.4 - - - - - - -
20/01:30am 22.0 ESE 10 18 1012.9 - 0.4 - - - - - - -
20/01:00am 22.0 ESE 11 16 1013.5 - 0.4 - - - - - - -
20/12:30am 22.0 ESE 11 18 1014.0 - 0.4 - - - - - - -
20/12:00am 22.2 ESE 12 18 1014.1 - 0.4 - - - - - - -
 
Date/Time
EST
Temp
°C
Wind Pressure Rain since
9am
mm
Weather Cloud Vis
km
Sea
Height
m
Swell
Dir  Spd
kts
Gust
kts
hPa Trend Height
m
Period
s
Dir
19/11:30pm 22.1 ESE 13 18 1014.2 - 0.4 - - - - - - -
19/11:00pm 22.2 ESE 16 23 1014.3 - 0.4 - - - - - - -
19/10:30pm 22.1 ESE 12 19 1014.4 - 0.4 - - - - - - -
19/10:00pm 22.0 ESE 13 21 1014.7 - 0.4 - - - - - - -
19/09:30pm 21.9 ESE 15 22 1014.4 - 0.4 - - - - - - -
19/09:00pm 22.0 ESE 18 24 1014.5 - 0.4 - - - - - - -
19/08:30pm 22.3 SE 15 20 1014.5 - 0.4 - - - - - - -
19/08:00pm 22.4 SE 15 21 1014.4 - 0.4 - - - - - - -
19/07:30pm 22.3 SE 15 20 1014.1 - 0.4 - - - - - - -
19/07:00pm 22.0 SE 16 21 1013.8 - 0.4 - - - - - - -
19/06:30pm 22.4 SE 17 23 1013.2 - 0.4 - - - - - - -
19/06:00pm 22.5 ESE 15 22 1012.8 - 0.4 - - - - - - -
19/05:30pm 23.1 ESE 14 21 1012.5 - 0.4 - - - - - - -
19/05:00pm 23.5 ESE 17 22 1012.1 - 0.4 - - - - - - -
19/04:30pm 23.6 ESE 16 22 1011.8 - 0.4 - - - - - - -
19/04:00pm 24.0 ESE 15 21 1011.9 - 0.4 - - - - - - -
19/03:30pm 24.2 ESE 13 18 1012.1 - 0.4 - - - - - - -
19/03:00pm 24.2 ESE 12 17 1012.4 - 0.4 - - - - - - -
19/02:30pm 24.9 SE 11 16 1012.6 - 0.4 - - - - - - -
19/02:00pm 24.7 ESE 11 16 1012.8 - 0.4 - - - - - - -
19/01:30pm 26.1 ESE 11 15 1013.1 - 0.4 - - - - - - -
19/01:00pm 25.0 ESE 12 16 1013.4 - 0.2 - - - - - - -
19/12:30pm 25.0 ESE 11 16 1013.7 - 0.2 - - - - - - -
19/12:00pm 24.0 ESE 8 13 1013.9 - 0.2 - - - - - - -
19/11:30am 23.4 ESE 10 14 1014.0 - 0.2 - - - - - - -
19/11:00am 22.9 SE 8 13 1014.2 - 0.2 - - - - - - -
19/10:30am 22.3 ENE 5 8 1014.2 - 0.2 - - - - - - -
19/10:00am 21.4 SE 6 9 1014.2 - 0.2 - - - - - - -
19/09:30am 21.7 ESE 12 17 1014.4 - 0.0 - - - - - - -
19/09:00am 23.4 SE 10 14 1014.1 - 0.2 - - - - - - -
19/08:30am 24.1 SE 11 16 1013.8 - 0.2 - - - - - - -
19/08:00am 23.9 SE 14 17 1013.7 - 0.2 - - - - - - -
19/07:30am 24.4 ESE 9 14 1013.3 - 0.2 - - - - - - -
19/07:00am 24.3 ESE 5 10 1013.1 - 0.2 - - - - - - -
19/06:30am 23.4 ESE 5 9 1012.9 - 0.2 - - - - - - -
19/06:00am 22.3 ENE 5 9 1012.4 - 0.2 - - - - - - -
19/05:30am 21.7 ENE 6 10 1012.1 - 0.2 - - - - - - -
19/05:00am 21.6 ENE 7 11 1011.7 - 0.2 - - - - - - -
19/04:30am 21.7 E 5 9 1011.6 - 0.2 - - - - - - -
19/04:00am 21.8 ENE 7 10 1011.5 - 0.2 - - - - - - -
19/03:30am 21.8 ENE 6 9 1011.4 - 0.2 - - - - - - -
19/03:00am 21.9 ENE 7 11 1011.5 - 0.2 - - - - - - -
19/02:30am 21.7 ENE 7 10 1011.5 - 0.2 - - - - - - -
19/02:00am 22.0 E 5 11 1011.6 - 0.2 - - - - - - -
19/01:30am 22.1 ENE 7 11 1011.8 - 0.2 - - - - - - -
19/01:00am 22.0 ENE 7 11 1012.0 - 0.2 - - - - - - -
19/12:30am 22.1 ENE 7 12 1012.1 - 0.2 - - - - - - -
19/12:00am 22.4 ENE 5 10 1012.6 - 0.2 - - - - - - -
 
Date/Time
EST
Temp
°C
Wind Pressure Rain since
9am
mm
Weather Cloud Vis
km
Sea
Height
m
Swell
Dir  Spd
kts
Gust
kts
hPa Trend Height
m
Period
s
Dir
18/11:30pm 22.3 E 4 9 1013.2 - 0.2 - - - - - - -
18/11:00pm 22.3 ENE 6 11 1013.5 - 0.2 - - - - - - -
18/10:30pm 22.4 E 5 9 1013.5 - 0.2 - - - - - - -
18/10:00pm 22.4 ENE 6 11 1013.4 - 0.2 - - - - - - -
18/09:30pm 22.5 E 5 11 1013.2 - 0.2 - - - - - - -
18/09:00pm 22.4 E 6 10 1013.0 - 0.2 - - - - - - -
18/08:30pm 22.5 ENE 8 12 1012.9 - 0.2 - - - - - - -
18/08:00pm 22.5 ENE 7 12 1012.7 - 0.2 - - - - - - -
18/07:30pm 22.6 NE 7 11 1012.6 - 0.2 - - - - - - -
18/07:00pm 22.7 NE 7 12 1012.5 - 0.2 - - - - - - -
18/06:30pm 22.9 NE 6 9 1012.3 - 0.2 - - - - - - -
18/06:00pm 23.0 NE 6 9 1011.8 - 0.2 - - - - - - -
18/05:30pm 23.4 NE 7 10 1011.7 - 0.2 - - - - - - -
18/05:00pm 24.0 NE 7 10 1011.6 - 0.2 - - - - - - -
18/04:30pm 24.6 NE 7 12 1011.6 - 0.2 - - - - - - -
18/04:00pm 24.5 ENE 8 12 1011.4 - 0.2 - - - - - - -
18/03:30pm 24.6 NE 9 13 1011.1 - 0.2 - - - - - - -
18/03:00pm 24.6 NE 9 15 1011.4 - 0.2 - - - - - - -
18/02:30pm 24.7 NE 8 15 1011.6 - 0.2 - - - - - - -
18/02:00pm 24.8 NE 9 16 1012.0 - 0.2 - - - - - - -
18/01:30pm 24.2 SE 12 18 1012.3 - 0.2 - - - - - - -
18/01:00pm 25.7 ESE 12 18 1013.0 - 0.2 - - - - - - -
18/12:30pm 25.4 SE 13 18 1013.3 - 0.2 - - - - - - -
18/12:00pm 25.5 SE 13 18 1013.9 - 0.2 Recent precip. - - - - - -
18/11:30am 25.8 SE 14 20 1014.0 - 0.2 - - - - - - -
18/11:00am 24.5 SE 13 19 1014.4 - 0.0 - - - - - - -
18/10:30am 24.2 SE 13 18 1014.8 - 0.0 - - - - - - -
18/10:00am 23.6 ESE 12 17 1014.8 - 0.0 - - - - - - -
18/09:30am 22.8 SE 14 19 1014.7 - 0.0 - - - - - - -
18/09:00am 22.6 SE 9 14 1014.5 - 2.6 - - - - - - -
18/08:30am 22.0 ESE 10 15 1014.4 - 2.6 - - - - - - -
18/08:00am 21.2 ESE 14 20 1014.3 - 2.6 - - - - - - -
18/07:30am 20.7 SE 8 13 1014.4 - 2.0 - - - - - - -
18/07:00am 21.0 SE 5 10 1014.1 - 0.4 - - - - - - -
18/06:30am 21.4 SE 9 12 1013.9 - 0.0 - - - - - - -
18/06:00am 22.3 ESE 5 8 1013.3 - 0.0 - - - - - - -
18/05:30am 21.9 E 4 6 1013.2 - 0.0 - - - - - - -
18/05:00am 22.0 E 4 6 1012.9 - 0.0 - - - - - - -
18/04:30am 22.1 E 5 6 1012.6 - 0.0 - - - - - - -
18/04:00am 22.0 E 5 9 1012.4 - 0.0 - - - - - - -
18/03:30am 22.0 ENE 7 11 1012.1 - 0.0 - - - - - - -
18/03:00am 22.1 E 6 11 1012.5 - 0.0 - - - - - - -
18/02:30am 22.1 ENE 8 11 1012.7 - 0.0 - - - - - - -
18/02:00am 22.1 ENE 8 12 1012.5 - 0.0 - - - - - - -
18/01:30am 22.3 ENE 9 15 1012.6 - 0.0 - - - - - - -
18/01:00am 22.2 E 5 10 1013.3 - 0.0 - - - - - - -
18/12:30am 22.3 ENE 8 13 1013.5 - 0.0 - - - - - - -
18/12:00am 22.2 ENE 7 11 1013.8 - 0.0 - - - - - - -
 
Date/Time
EST
Temp
°C
Wind Pressure Rain since
9am
mm
Weather Cloud Vis
km
Sea
Height
m
Swell
Dir  Spd
kts
Gust
kts
hPa Trend Height
m
Period
s
Dir
17/11:30pm 22.2 E 5 9 1014.2 - 0.0 - - - - - - -
17/11:00pm 22.2 ENE 6 12 1014.5 - 0.0 - - - - - - -
17/10:30pm 22.3 ESE 5 10 1014.8 - 0.0 - - - - - - -
17/10:00pm 22.4 ESE 6 14 1014.4 - 0.0 - - - - - - -
17/09:30pm 22.5 ESE 6 12 1014.3 - 0.0 - - - - - - -
17/09:00pm 22.6 E 6 11 1013.9 - 0.0 - - - - - - -
17/08:30pm 22.6 ENE 9 17 1013.8 - 0.0 - - - - - - -
17/08:00pm 22.8 ENE 10 17 1013.6 - 0.0 - - - - - - -
17/07:30pm 22.6 E 6 12 1013.6 - 0.0 - - - - - - -
17/07:00pm 22.5 ESE 7 13 1013.2 - 0.0 - - - - - - -
17/06:30pm 22.6 ESE 11 18 1013.3 - 0.0 - - - - - - -
17/06:00pm 22.8 ESE 11 17 1013.2 - 0.0 - - - - - - -
17/05:30pm 23.1 ESE 12 18 1013.1 - 0.0 - - - - - - -
17/05:00pm 23.7 ESE 11 16 1013.1 - 0.0 - - - - - - -
17/04:30pm 23.7 ESE 13 18 1013.2 - 0.0 - - - - - - -
17/04:00pm 24.1 ESE 12 17 1013.1 - 0.0 - - - - - - -
17/03:30pm 24.6 SE 13 18 1013.4 - 0.0 - - - - - - -
17/03:00pm 25.2 SE 12 19 1013.6 - 0.0 - - - - - - -
17/02:30pm 25.8 SE 12 17 1013.9 - 0.0 - - - - - - -
17/02:00pm 25.5 SE 12 18 1014.1 - 0.0 - - - - - - -
17/01:30pm 25.6 SE 13 18 1014.0 - 0.0 - - - - - - -
17/01:00pm 26.0 SE 14 20 1014.5 - 0.0 - - - - - - -
17/12:30pm 25.8 SE 12 17 1014.9 - 0.0 - - - - - - -

Other Formats:

Comma delimited format used in spreadsheet applications
http://www.bom.gov.au/fwo/IDQ60701/IDQ60701.94372.axf

JavaScript Object Notation format (JSON) in row-major order
http://www.bom.gov.au/fwo/IDQ60701/IDQ60701.94372.json